sensor_id;sensor_type;location;lat;lon;timestamp;pressure;altitude;pressure_sealevel;temperature;humidity
3844;BME280;1937;51.444;6.484;2023-01-19T00:01:41;67170.66;;;1.43;98.32
3844;BME280;1937;51.444;6.484;2023-01-19T00:04:10;67201.44;;;1.52;98.43
3844;BME280;1937;51.444;6.484;2023-01-19T00:06:38;67171.41;;;1.48;98.05
3844;BME280;1937;51.444;6.484;2023-01-19T00:09:08;67225.50;;;1.40;98.24
3844;BME280;1937;51.444;6.484;2023-01-19T00:11:36;67210.75;;;1.60;98.04
3844;BME280;1937;51.444;6.484;2023-01-19T00:14:05;67198.38;;;1.45;97.85
3844;BME280;1937;51.444;6.484;2023-01-19T00:16:34;67247.47;;;1.54;97.81
3844;BME280;1937;51.444;6.484;2023-01-19T00:19:02;67196.59;;;1.43;98.40
3844;BME280;1937;51.444;6.484;2023-01-19T00:21:30;67220.63;;;1.38;98.38
3844;BME280;1937;51.444;6.484;2023-01-19T00:23:59;67202.06;;;1.46;98.04
3844;BME280;1937;51.444;6.484;2023-01-19T00:26:28;67228.41;;;1.42;98.30
3844;BME280;1937;51.444;6.484;2023-01-19T00:28:56;67244.00;;;1.45;98.28
3844;BME280;1937;51.444;6.484;2023-01-19T00:31:25;67256.41;;;1.60;97.80
3844;BME280;1937;51.444;6.484;2023-01-19T00:33:55;67233.28;;;1.44;98.19
3844;BME280;1937;51.444;6.484;2023-01-19T00:36:24;67235.66;;;1.40;98.90
3844;BME280;1937;51.444;6.484;2023-01-19T00:38:53;67274.66;;;1.36;98.91
3844;BME280;1937;51.444;6.484;2023-01-19T00:41:22;67314.41;;;1.44;99.10
3844;BME280;1937;51.444;6.484;2023-01-19T00:44:12;67335.63;;;1.60;98.65
3844;BME280;1937;51.444;6.484;2023-01-19T00:46:42;67371.28;;;1.78;98.38
3844;BME280;1937;51.444;6.484;2023-01-19T00:49:10;67346.53;;;1.72;97.64
3844;BME280;1937;51.444;6.484;2023-01-19T00:51:39;67292.06;;;1.71;97.52
3844;BME280;1937;51.444;6.484;2023-01-19T00:54:08;67282.59;;;1.58;97.92
3844;BME280;1937;51.444;6.484;2023-01-19T00:56:36;67317.25;;;1.73;97.98
3844;BME280;1937;51.444;6.484;2023-01-19T00:59:05;67321.91;;;1.77;97.75
3844;BME280;1937;51.444;6.484;2023-01-19T01:01:34;67328.16;;;1.78;97.51
3844;BME280;1937;51.444;6.484;2023-01-19T01:04:01;67360.22;;;1.62;97.32
3844;BME280;1937;51.444;6.484;2023-01-19T01:06:37;67358.41;;;1.80;97.99
3844;BME280;1937;51.444;6.484;2023-01-19T01:09:07;67296.19;;;1.68;98.09
3844;BME280;1937;51.444;6.484;2023-01-19T01:11:37;67308.69;;;1.70;98.05
3844;BME280;1937;51.444;6.484;2023-01-19T01:14:04;67328.19;;;1.72;97.80
3844;BME280;1937;51.444;6.484;2023-01-19T01:16:30;67338.53;;;1.76;98.15
3844;BME280;1937;51.444;6.484;2023-01-19T01:18:58;67328.53;;;1.87;97.75
3844;BME280;1937;51.444;6.484;2023-01-19T01:21:25;67333.06;;;1.67;97.75
3844;BME280;1937;51.444;6.484;2023-01-19T01:23:52;67386.66;;;1.89;97.57
3844;BME280;1937;51.444;6.484;2023-01-19T01:26:18;67378.09;;;1.93;97.62
3844;BME280;1937;51.444;6.484;2023-01-19T01:28:45;67385.28;;;2.03;97.15
3844;BME280;1937;51.444;6.484;2023-01-19T01:31:11;67318.75;;;1.90;97.11
3844;BME280;1937;51.444;6.484;2023-01-19T01:33:38;67334.19;;;1.88;97.13
3844;BME280;1937;51.444;6.484;2023-01-19T01:36:07;67381.38;;;1.98;97.25
3844;BME280;1937;51.444;6.484;2023-01-19T01:38:33;67380.06;;;1.86;97.78
3844;BME280;1937;51.444;6.484;2023-01-19T01:41:00;67361.44;;;2.00;97.22
3844;BME280;1937;51.444;6.484;2023-01-19T01:43:41;67407.50;;;2.10;96.94
3844;BME280;1937;51.444;6.484;2023-01-19T01:46:07;67335.31;;;1.95;96.89
3844;BME280;1937;51.444;6.484;2023-01-19T01:48:35;67385.69;;;1.99;97.10
3844;BME280;1937;51.444;6.484;2023-01-19T01:51:06;67330.38;;;2.06;96.95
3844;BME280;1937;51.444;6.484;2023-01-19T01:54:03;67357.53;;;2.08;96.41
3844;BME280;1937;51.444;6.484;2023-01-19T01:56:34;67381.09;;;2.20;96.57
3844;BME280;1937;51.444;6.484;2023-01-19T01:59:05;67302.28;;;2.02;96.53
3844;BME280;1937;51.444;6.484;2023-01-19T02:01:33;67298.44;;;1.90;96.75
3844;BME280;1937;51.444;6.484;2023-01-19T02:04:17;67309.72;;;2.04;96.33
3844;BME280;1937;51.444;6.484;2023-01-19T02:06:45;67310.66;;;2.07;96.37
3844;BME280;1937;51.444;6.484;2023-01-19T02:09:34;67316.19;;;1.96;97.02
3844;BME280;1937;51.444;6.484;2023-01-19T02:12:19;67325.72;;;2.02;96.28
3844;BME280;1937;51.444;6.484;2023-01-19T02:15:04;67353.47;;;1.98;97.01
3844;BME280;1937;51.444;6.484;2023-01-19T02:17:30;67273.47;;;1.86;97.38
3844;BME280;1937;51.444;6.484;2023-01-19T02:19:57;67317.69;;;2.06;96.67
3844;BME280;1937;51.444;6.484;2023-01-19T02:22:30;67263.91;;;1.86;96.40
3844;BME280;1937;51.444;6.484;2023-01-19T02:25:02;67353.66;;;1.96;96.34
3844;BME280;1937;51.444;6.484;2023-01-19T02:27:29;67361.72;;;1.79;96.43
3844;BME280;1937;51.444;6.484;2023-01-19T02:29:57;67316.78;;;1.90;96.56
3844;BME280;1937;51.444;6.484;2023-01-19T02:32:24;67319.50;;;1.95;96.38
3844;BME280;1937;51.444;6.484;2023-01-19T02:34:50;67314.63;;;1.99;96.54
3844;BME280;1937;51.444;6.484;2023-01-19T02:37:18;67347.38;;;2.01;96.17
3844;BME280;1937;51.444;6.484;2023-01-19T02:39:48;67299.19;;;1.95;95.75
3844;BME280;1937;51.444;6.484;2023-01-19T02:42:21;67301.94;;;1.99;95.33
3844;BME280;1937;51.444;6.484;2023-01-19T02:44:52;67320.84;;;2.00;96.53
3844;BME280;1937;51.444;6.484;2023-01-19T02:47:19;67273.59;;;2.03;95.95
3844;BME280;1937;51.444;6.484;2023-01-19T02:49:55;67282.16;;;2.06;95.94
3844;BME280;1937;51.444;6.484;2023-01-19T02:52:22;67265.97;;;2.03;96.20
3844;BME280;1937;51.444;6.484;2023-01-19T02:55:00;67254.72;;;1.89;95.89
3844;BME280;1937;51.444;6.484;2023-01-19T02:57:40;67213.97;;;1.78;96.30
3844;BME280;1937;51.444;6.484;2023-01-19T03:00:20;67312.47;;;1.95;96.21
3844;BME280;1937;51.444;6.484;2023-01-19T03:03:01;67279.56;;;1.82;96.47
3844;BME280;1937;51.444;6.484;2023-01-19T03:05:48;67305.97;;;2.10;95.57
3844;BME280;1937;51.444;6.484;2023-01-19T03:08:28;67288.22;;;2.03;95.51
3844;BME280;1937;51.444;6.484;2023-01-19T03:11:00;67310.34;;;1.91;95.16
3844;BME280;1937;51.444;6.484;2023-01-19T03:13:36;67304.28;;;1.95;95.78
3844;BME280;1937;51.444;6.484;2023-01-19T03:16:13;67275.00;;;1.96;95.57
3844;BME280;1937;51.444;6.484;2023-01-19T03:18:44;67293.34;;;1.96;96.69
3844;BME280;1937;51.444;6.484;2023-01-19T03:21:13;67299.34;;;2.06;96.26
3844;BME280;1937;51.444;6.484;2023-01-19T03:23:44;67288.28;;;1.90;96.62
3844;BME280;1937;51.444;6.484;2023-01-19T03:26:24;67339.59;;;2.03;97.18
3844;BME280;1937;51.444;6.484;2023-01-19T03:28:55;67339.81;;;1.95;97.72
3844;BME280;1937;51.444;6.484;2023-01-19T03:31:24;67378.72;;;1.80;98.85
3844;BME280;1937;51.444;6.484;2023-01-19T03:33:54;67350.47;;;1.64;100.00
3844;BME280;1937;51.444;6.484;2023-01-19T03:36:25;67466.38;;;1.53;100.00
3844;BME280;1937;51.444;6.484;2023-01-19T03:38:56;67465.41;;;1.43;100.00
3844;BME280;1937;51.444;6.484;2023-01-19T03:41:24;67476.72;;;1.31;100.00
3844;BME280;1937;51.444;6.484;2023-01-19T03:43:55;67595.28;;;1.24;100.00
3844;BME280;1937;51.444;6.484;2023-01-19T03:46:23;67594.88;;;1.21;100.00
3844;BME280;1937;51.444;6.484;2023-01-19T03:48:50;67687.28;;;1.09;100.00
3844;BME280;1937;51.444;6.484;2023-01-19T03:51:18;67842.31;;;1.18;100.00
3844;BME280;1937;51.444;6.484;2023-01-19T03:53:45;67878.00;;;1.16;100.00
3844;BME280;1937;51.444;6.484;2023-01-19T03:56:17;67908.44;;;1.16;100.00
3844;BME280;1937;51.444;6.484;2023-01-19T03:58:46;68029.22;;;1.27;100.00
3844;BME280;1937;51.444;6.484;2023-01-19T04:01:18;68016.78;;;1.09;100.00
3844;BME280;1937;51.444;6.484;2023-01-19T04:03:47;68125.25;;;1.15;100.00
3844;BME280;1937;51.444;6.484;2023-01-19T04:06:16;68136.00;;;1.01;100.00
3844;BME280;1937;51.444;6.484;2023-01-19T04:08:45;68240.00;;;1.07;100.00
3844;BME280;1937;51.444;6.484;2023-01-19T04:11:15;68292.50;;;1.09;100.00
3844;BME280;1937;51.444;6.484;2023-01-19T04:13:43;68350.03;;;1.10;100.00
3844;BME280;1937;51.444;6.484;2023-01-19T04:16:13;68464.66;;;1.19;100.00
3844;BME280;1937;51.444;6.484;2023-01-19T04:18:48;68443.19;;;0.95;100.00
3844;BME280;1937;51.444;6.484;2023-01-19T04:21:17;68586.72;;;1.07;100.00
3844;BME280;1937;51.444;6.484;2023-01-19T04:23:46;68647.25;;;1.11;100.00
3844;BME280;1937;51.444;6.484;2023-01-19T04:26:15;68713.00;;;1.13;100.00
3844;BME280;1937;51.444;6.484;2023-01-19T04:28:44;68712.13;;;1.08;100.00
3844;BME280;1937;51.444;6.484;2023-01-19T04:31:13;68723.00;;;1.06;100.00
3844;BME280;1937;51.444;6.484;2023-01-19T04:33:41;68789.53;;;1.07;100.00
3844;BME280;1937;51.444;6.484;2023-01-19T04:36:11;68899.91;;;1.14;100.00
3844;BME280;1937;51.444;6.484;2023-01-19T04:38:39;68897.66;;;1.02;100.00
3844;BME280;1937;51.444;6.484;2023-01-19T04:41:08;69012.19;;;1.04;100.00
3844;BME280;1937;51.444;6.484;2023-01-19T04:43:37;69092.13;;;1.03;100.00
3844;BME280;1937;51.444;6.484;2023-01-19T04:46:05;69208.06;;;1.13;100.00
3844;BME280;1937;51.444;6.484;2023-01-19T04:48:34;69244.78;;;1.14;100.00
3844;BME280;1937;51.444;6.484;2023-01-19T04:51:02;69253.78;;;1.22;100.00
3844;BME280;1937;51.444;6.484;2023-01-19T04:53:32;69161.19;;;1.04;100.00
3844;BME280;1937;51.444;6.484;2023-01-19T04:56:02;69094.59;;;0.86;100.00
3844;BME280;1937;51.444;6.484;2023-01-19T04:58:30;69316.47;;;1.04;100.00
3844;BME280;1937;51.444;6.484;2023-01-19T05:00:58;69315.72;;;1.06;100.00
3844;BME280;1937;51.444;6.484;2023-01-19T05:03:27;69325.31;;;0.95;100.00
3844;BME280;1937;51.444;6.484;2023-01-19T05:05:56;69406.13;;;1.09;100.00
3844;BME280;1937;51.444;6.484;2023-01-19T05:08:24;69348.47;;;0.99;100.00
3844;BME280;1937;51.444;6.484;2023-01-19T05:10:53;69376.22;;;1.01;100.00
3844;BME280;1937;51.444;6.484;2023-01-19T05:13:23;69480.66;;;1.04;100.00
3844;BME280;1937;51.444;6.484;2023-01-19T05:15:51;69524.63;;;1.00;100.00
3844;BME280;1937;51.444;6.484;2023-01-19T05:18:20;69553.72;;;1.01;100.00
3844;BME280;1937;51.444;6.484;2023-01-19T05:20:48;69592.34;;;1.02;100.00
3844;BME280;1937;51.444;6.484;2023-01-19T05:23:17;69655.53;;;1.06;100.00
3844;BME280;1937;51.444;6.484;2023-01-19T05:25:45;69697.78;;;1.09;100.00
3844;BME280;1937;51.444;6.484;2023-01-19T05:28:14;69819.91;;;1.24;100.00
3844;BME280;1937;51.444;6.484;2023-01-19T05:30:44;69699.22;;;1.17;100.00
3844;BME280;1937;51.444;6.484;2023-01-19T05:33:12;69628.09;;;1.08;100.00
3844;BME280;1937;51.444;6.484;2023-01-19T05:35:41;69672.31;;;1.11;100.00
3844;BME280;1937;51.444;6.484;2023-01-19T05:38:10;69660.81;;;1.12;100.00
3844;BME280;1937;51.444;6.484;2023-01-19T05:40:38;69751.03;;;1.20;100.00
3844;BME280;1937;51.444;6.484;2023-01-19T05:43:07;69668.19;;;1.16;100.00
3844;BME280;1937;51.444;6.484;2023-01-19T05:45:36;69670.38;;;1.22;100.00
3844;BME280;1937;51.444;6.484;2023-01-19T05:48:05;69672.66;;;1.16;100.00
3844;BME280;1937;51.444;6.484;2023-01-19T05:50:34;69710.34;;;1.22;100.00
3844;BME280;1937;51.444;6.484;2023-01-19T05:53:03;69690.41;;;1.27;100.00
3844;BME280;1937;51.444;6.484;2023-01-19T05:55:32;69704.78;;;1.30;100.00
3844;BME280;1937;51.444;6.484;2023-01-19T05:58:00;69667.47;;;1.29;100.00
3844;BME280;1937;51.444;6.484;2023-01-19T06:00:28;69610.56;;;1.15;100.00
3844;BME280;1937;51.444;6.484;2023-01-19T06:02:58;69725.66;;;1.31;100.00
3844;BME280;1937;51.444;6.484;2023-01-19T06:05:26;69755.88;;;1.35;100.00
3844;BME280;1937;51.444;6.484;2023-01-19T06:07:57;69813.28;;;1.30;100.00
3844;BME280;1937;51.444;6.484;2023-01-19T06:10:26;69824.50;;;1.22;100.00
3844;BME280;1937;51.444;6.484;2023-01-19T06:12:54;69878.03;;;1.29;100.00
3844;BME280;1937;51.444;6.484;2023-01-19T06:15:23;69868.25;;;1.33;100.00
3844;BME280;1937;51.444;6.484;2023-01-19T06:17:52;69924.09;;;1.44;100.00
3844;BME280;1937;51.444;6.484;2023-01-19T06:20:21;69766.63;;;1.24;100.00
3844;BME280;1937;51.444;6.484;2023-01-19T06:22:49;69962.06;;;1.46;100.00
3844;BME280;1937;51.444;6.484;2023-01-19T06:25:18;69911.31;;;1.56;100.00
3844;BME280;1937;51.444;6.484;2023-01-19T06:27:46;69792.38;;;1.50;100.00
3844;BME280;1937;51.444;6.484;2023-01-19T06:30:15;69863.69;;;1.57;100.00
3844;BME280;1937;51.444;6.484;2023-01-19T06:32:46;69753.81;;;1.48;100.00
3844;BME280;1937;51.444;6.484;2023-01-19T06:35:15;69772.81;;;1.49;100.00
3844;BME280;1937;51.444;6.484;2023-01-19T06:37:46;69777.16;;;1.40;100.00
3844;BME280;1937;51.444;6.484;2023-01-19T06:40:14;69736.66;;;1.38;100.00
3844;BME280;1937;51.444;6.484;2023-01-19T06:42:42;69836.25;;;1.49;100.00
3844;BME280;1937;51.444;6.484;2023-01-19T06:45:12;69823.91;;;1.53;100.00
3844;BME280;1937;51.444;6.484;2023-01-19T06:47:40;69784.16;;;1.50;100.00
3844;BME280;1937;51.444;6.484;2023-01-19T06:50:11;69819.44;;;1.54;100.00
3844;BME280;1937;51.444;6.484;2023-01-19T06:52:39;69772.31;;;1.46;100.00
3844;BME280;1937;51.444;6.484;2023-01-19T06:55:11;69832.13;;;1.54;100.00
3844;BME280;1937;51.444;6.484;2023-01-19T06:57:41;69818.25;;;1.53;100.00
3844;BME280;1937;51.444;6.484;2023-01-19T07:00:11;69807.84;;;1.46;100.00
3844;BME280;1937;51.444;6.484;2023-01-19T07:02:42;69899.47;;;1.53;100.00
3844;BME280;1937;51.444;6.484;2023-01-19T07:05:12;69861.41;;;1.63;100.00
3844;BME280;1937;51.444;6.484;2023-01-19T07:07:41;69700.53;;;1.48;100.00
3844;BME280;1937;51.444;6.484;2023-01-19T07:10:12;69749.13;;;1.52;100.00
3844;BME280;1937;51.444;6.484;2023-01-19T07:12:42;69789.13;;;1.52;100.00
3844;BME280;1937;51.444;6.484;2023-01-19T07:15:13;69697.53;;;1.35;100.00
3844;BME280;1937;51.444;6.484;2023-01-19T07:17:42;69805.66;;;1.30;100.00
3844;BME280;1937;51.444;6.484;2023-01-19T07:20:12;70060.69;;;1.52;100.00
3844;BME280;1937;51.444;6.484;2023-01-19T07:22:41;70087.13;;;1.68;100.00
3844;BME280;1937;51.444;6.484;2023-01-19T07:25:13;69845.56;;;1.63;100.00
3844;BME280;1937;51.444;6.484;2023-01-19T07:27:41;69870.59;;;1.69;100.00
3844;BME280;1937;51.444;6.484;2023-01-19T07:30:12;69820.91;;;1.72;100.00
3844;BME280;1937;51.444;6.484;2023-01-19T07:32:42;69780.28;;;1.72;100.00
3844;BME280;1937;51.444;6.484;2023-01-19T07:35:11;69730.38;;;1.58;100.00
3844;BME280;1937;51.444;6.484;2023-01-19T07:37:39;69758.06;;;1.62;100.00
3844;BME280;1937;51.444;6.484;2023-01-19T07:40:09;69729.44;;;1.53;100.00
3844;BME280;1937;51.444;6.484;2023-01-19T07:42:38;69871.94;;;1.68;100.00
3844;BME280;1937;51.444;6.484;2023-01-19T07:45:08;69909.06;;;1.84;100.00
3844;BME280;1937;51.444;6.484;2023-01-19T07:47:37;69822.38;;;1.80;100.00
3844;BME280;1937;51.444;6.484;2023-01-19T07:50:06;69620.69;;;1.47;100.00
3844;BME280;1937;51.444;6.484;2023-01-19T07:52:35;69823.84;;;1.77;100.00
3844;BME280;1937;51.444;6.484;2023-01-19T07:55:05;69851.75;;;1.87;100.00
3844;BME280;1937;51.444;6.484;2023-01-19T07:57:33;69773.28;;;1.83;100.00
3844;BME280;1937;51.444;6.484;2023-01-19T08:00:04;69648.53;;;1.68;100.00
3844;BME280;1937;51.444;6.484;2023-01-19T08:02:34;69680.69;;;1.61;100.00
3844;BME280;1937;51.444;6.484;2023-01-19T08:05:04;69790.59;;;1.70;100.00
3844;BME280;1937;51.444;6.484;2023-01-19T08:07:34;69790.94;;;1.64;100.00
3844;BME280;1937;51.444;6.484;2023-01-19T08:10:02;69980.88;;;1.83;100.00
3844;BME280;1937;51.444;6.484;2023-01-19T08:12:32;69968.19;;;1.83;100.00
3844;BME280;1937;51.444;6.484;2023-01-19T08:15:00;69960.00;;;1.93;100.00
3844;BME280;1937;51.444;6.484;2023-01-19T08:17:31;69794.09;;;1.75;100.00
3844;BME280;1937;51.444;6.484;2023-01-19T08:20:00;69976.31;;;1.96;100.00
3844;BME280;1937;51.444;6.484;2023-01-19T08:22:29;69948.03;;;2.02;100.00
3844;BME280;1937;51.444;6.484;2023-01-19T08:24:57;69867.84;;;1.94;100.00
3844;BME280;1937;51.444;6.484;2023-01-19T08:27:26;69954.44;;;2.01;100.00
3844;BME280;1937;51.444;6.484;2023-01-19T08:29:56;69994.03;;;2.09;100.00
3844;BME280;1937;51.444;6.484;2023-01-19T08:32:25;69906.78;;;2.01;100.00
3844;BME280;1937;51.444;6.484;2023-01-19T08:34:54;69858.88;;;1.95;100.00
3844;BME280;1937;51.444;6.484;2023-01-19T08:37:23;69897.50;;;2.09;100.00
3844;BME280;1937;51.444;6.484;2023-01-19T08:39:52;69890.47;;;2.09;100.00
3844;BME280;1937;51.444;6.484;2023-01-19T08:42:20;69913.47;;;2.18;100.00
3844;BME280;1937;51.444;6.484;2023-01-19T08:44:50;69699.97;;;1.98;100.00
3844;BME280;1937;51.444;6.484;2023-01-19T08:47:18;69844.38;;;2.04;100.00
3844;BME280;1937;51.444;6.484;2023-01-19T08:49:46;69823.81;;;1.98;100.00
3844;BME280;1937;51.444;6.484;2023-01-19T08:52:16;69948.06;;;2.13;100.00
3844;BME280;1937;51.444;6.484;2023-01-19T08:54:45;69882.97;;;2.07;100.00
3844;BME280;1937;51.444;6.484;2023-01-19T08:57:13;69879.59;;;2.11;100.00
3844;BME280;1937;51.444;6.484;2023-01-19T08:59:42;69860.59;;;2.10;100.00
3844;BME280;1937;51.444;6.484;2023-01-19T09:02:13;69954.34;;;2.24;100.00
3844;BME280;1937;51.444;6.484;2023-01-19T09:04:42;69765.38;;;2.09;100.00
3844;BME280;1937;51.444;6.484;2023-01-19T09:07:11;69882.97;;;2.28;100.00
3844;BME280;1937;51.444;6.484;2023-01-19T09:09:41;69844.63;;;2.32;100.00
3844;BME280;1937;51.444;6.484;2023-01-19T09:12:10;69709.59;;;2.28;100.00
3844;BME280;1937;51.444;6.484;2023-01-19T09:14:39;69648.88;;;2.24;100.00
3844;BME280;1937;51.444;6.484;2023-01-19T09:17:07;69641.50;;;2.20;100.00
3844;BME280;1937;51.444;6.484;2023-01-19T09:19:35;69712.84;;;2.26;100.00
3844;BME280;1937;51.444;6.484;2023-01-19T09:22:03;69605.47;;;2.17;100.00
3844;BME280;1937;51.444;6.484;2023-01-19T09:24:31;69633.81;;;2.00;100.00
3844;BME280;1937;51.444;6.484;2023-01-19T09:27:02;69761.63;;;2.08;100.00
3844;BME280;1937;51.444;6.484;2023-01-19T09:29:30;69717.38;;;2.04;100.00
3844;BME280;1937;51.444;6.484;2023-01-19T09:31:59;69781.09;;;2.22;100.00
3844;BME280;1937;51.444;6.484;2023-01-19T09:34:27;69712.84;;;2.26;100.00
3844;BME280;1937;51.444;6.484;2023-01-19T09:36:55;69774.69;;;2.23;100.00
3844;BME280;1937;51.444;6.484;2023-01-19T09:39:23;69716.13;;;2.25;100.00
3844;BME280;1937;51.444;6.484;2023-01-19T09:41:59;69695.56;;;2.18;100.00
3844;BME280;1937;51.444;6.484;2023-01-19T09:44:34;69836.28;;;2.34;100.00
3844;BME280;1937;51.444;6.484;2023-01-19T09:47:11;69781.44;;;2.37;100.00
3844;BME280;1937;51.444;6.484;2023-01-19T09:49:43;69790.66;;;2.32;100.00
3844;BME280;1937;51.444;6.484;2023-01-19T09:52:13;69873.88;;;2.42;100.00
3844;BME280;1937;51.444;6.484;2023-01-19T09:54:48;69826.34;;;2.40;100.00
3844;BME280;1937;51.444;6.484;2023-01-19T09:57:20;69640.28;;;2.19;100.00
3844;BME280;1937;51.444;6.484;2023-01-19T09:59:50;69780.22;;;2.36;100.00
3844;BME280;1937;51.444;6.484;2023-01-19T10:02:29;69789.78;;;2.46;100.00
3844;BME280;1937;51.444;6.484;2023-01-19T10:05:01;69606.84;;;2.35;100.00
3844;BME280;1937;51.444;6.484;2023-01-19T10:07:44;69641.31;;;2.32;100.00
3844;BME280;1937;51.444;6.484;2023-01-19T10:10:22;69895.56;;;2.52;100.00
3844;BME280;1937;51.444;6.484;2023-01-19T10:12:58;69903.31;;;2.50;100.00
3844;BME280;1937;51.444;6.484;2023-01-19T10:15:36;70123.25;;;2.82;100.00
3844;BME280;1937;51.444;6.484;2023-01-19T10:18:15;69904.38;;;2.84;100.00
3844;BME280;1937;51.444;6.484;2023-01-19T10:20:46;69829.53;;;2.81;100.00
3844;BME280;1937;51.444;6.484;2023-01-19T10:23:34;69730.09;;;2.85;100.00
3844;BME280;1937;51.444;6.484;2023-01-19T10:26:07;69766.38;;;2.95;100.00
3844;BME280;1937;51.444;6.484;2023-01-19T10:28:37;69599.28;;;2.63;100.00
3844;BME280;1937;51.444;6.484;2023-01-19T10:31:08;69780.00;;;2.80;100.00
3844;BME280;1937;51.444;6.484;2023-01-19T10:33:38;69829.47;;;3.03;100.00
3844;BME280;1937;51.444;6.484;2023-01-19T10:36:15;69781.34;;;3.09;100.00
3844;BME280;1937;51.444;6.484;2023-01-19T10:38:43;69582.00;;;3.13;100.00
3844;BME280;1937;51.444;6.484;2023-01-19T10:41:16;69491.59;;;3.05;100.00
3844;BME280;1937;51.444;6.484;2023-01-19T10:43:46;69443.66;;;2.99;100.00
3844;BME280;1937;51.444;6.484;2023-01-19T10:46:22;69372.63;;;3.06;100.00
3844;BME280;1937;51.444;6.484;2023-01-19T10:48:54;69323.56;;;3.16;100.00
3844;BME280;1937;51.444;6.484;2023-01-19T10:51:23;69249.59;;;3.01;100.00
3844;BME280;1937;51.444;6.484;2023-01-19T10:54:09;69108.78;;;2.96;100.00
3844;BME280;1937;51.444;6.484;2023-01-19T10:56:39;69061.66;;;2.97;100.00
3844;BME280;1937;51.444;6.484;2023-01-19T11:02:11;69035.50;;;2.98;100.00
3844;BME280;1937;51.444;6.484;2023-01-19T11:04:43;68986.72;;;2.96;100.00
3844;BME280;1937;51.444;6.484;2023-01-19T11:07:18;69070.97;;;3.00;100.00
3844;BME280;1937;51.444;6.484;2023-01-19T11:09:47;69035.59;;;3.13;100.00
3844;BME280;1937;51.444;6.484;2023-01-19T11:12:16;68933.59;;;3.00;100.00
3844;BME280;1937;51.444;6.484;2023-01-19T11:14:45;68921.78;;;2.97;100.00
3844;BME280;1937;51.444;6.484;2023-01-19T11:17:21;68843.16;;;2.86;100.00
3844;BME280;1937;51.444;6.484;2023-01-19T11:19:57;68829.56;;;2.81;100.00
3844;BME280;1937;51.444;6.484;2023-01-19T11:22:27;68958.91;;;2.94;100.00
3844;BME280;1937;51.444;6.484;2023-01-19T11:25:00;68952.59;;;3.01;100.00
3844;BME280;1937;51.444;6.484;2023-01-19T11:27:31;68856.00;;;2.93;100.00
3844;BME280;1937;51.444;6.484;2023-01-19T11:30:03;68793.38;;;2.80;100.00
3844;BME280;1937;51.444;6.484;2023-01-19T11:32:37;68796.72;;;2.70;100.00
3844;BME280;1937;51.444;6.484;2023-01-19T11:35:36;68902.09;;;2.80;100.00
3844;BME280;1937;51.444;6.484;2023-01-19T11:38:15;69032.81;;;3.00;100.00
3844;BME280;1937;51.444;6.484;2023-01-19T11:40:49;69084.56;;;3.05;100.00
3844;BME280;1937;51.444;6.484;2023-01-19T11:43:18;69080.06;;;3.06;100.00
3844;BME280;1937;51.444;6.484;2023-01-19T11:45:48;69126.44;;;3.41;100.00
3844;BME280;1937;51.444;6.484;2023-01-19T11:48:22;69060.34;;;3.56;100.00
3844;BME280;1937;51.444;6.484;2023-01-19T11:50:52;68850.97;;;3.40;100.00
3844;BME280;1937;51.444;6.484;2023-01-19T11:53:24;68843.22;;;3.57;100.00
3844;BME280;1937;51.444;6.484;2023-01-19T11:55:57;68754.13;;;3.57;100.00
3844;BME280;1937;51.444;6.484;2023-01-19T11:58:27;68655.00;;;3.55;100.00
3844;BME280;1937;51.444;6.484;2023-01-19T12:00:59;68617.25;;;3.58;100.00
3844;BME280;1937;51.444;6.484;2023-01-19T12:03:33;68586.88;;;3.71;99.73
3844;BME280;1937;51.444;6.484;2023-01-19T12:06:06;68438.28;;;3.59;98.52
3844;BME280;1937;51.444;6.484;2023-01-19T12:08:38;68455.09;;;3.56;100.00
3844;BME280;1937;51.444;6.484;2023-01-19T12:11:11;68471.28;;;3.68;99.88
3844;BME280;1937;51.444;6.484;2023-01-19T12:13:42;68500.31;;;3.93;98.08
3844;BME280;1937;51.444;6.484;2023-01-19T12:16:19;68343.59;;;3.94;97.19
3844;BME280;1937;51.444;6.484;2023-01-19T12:18:53;68226.75;;;3.83;97.17
3844;BME280;1937;51.444;6.484;2023-01-19T12:21:23;68170.94;;;3.81;96.94
3844;BME280;1937;51.444;6.484;2023-01-19T12:23:58;68189.13;;;3.70;98.03
3844;BME280;1937;51.444;6.484;2023-01-19T12:26:34;68188.56;;;3.83;98.38
3844;BME280;1937;51.444;6.484;2023-01-19T12:29:07;68193.19;;;4.02;97.08
3844;BME280;1937;51.444;6.484;2023-01-19T12:31:38;68130.28;;;4.01;96.25
3844;BME280;1937;51.444;6.484;2023-01-19T12:34:35;68081.69;;;3.96;96.91
3844;BME280;1937;51.444;6.484;2023-01-19T12:37:26;68045.25;;;4.04;96.82
3844;BME280;1937;51.444;6.484;2023-01-19T12:39:57;68012.94;;;4.09;95.52
3844;BME280;1937;51.444;6.484;2023-01-19T12:42:27;67974.91;;;3.94;96.26
3844;BME280;1937;51.444;6.484;2023-01-19T12:45:04;68017.50;;;4.35;95.99
3844;BME280;1937;51.444;6.484;2023-01-19T12:47:34;67970.81;;;4.37;95.42
3844;BME280;1937;51.444;6.484;2023-01-19T12:50:10;67983.78;;;4.35;95.56
3844;BME280;1937;51.444;6.484;2023-01-19T12:52:46;67882.03;;;4.26;94.05
3844;BME280;1937;51.444;6.484;2023-01-19T12:55:22;67731.00;;;4.08;94.48
3844;BME280;1937;51.444;6.484;2023-01-19T12:57:57;67749.84;;;3.91;95.56
3844;BME280;1937;51.444;6.484;2023-01-19T13:00:41;67812.13;;;4.05;96.00
3844;BME280;1937;51.444;6.484;2023-01-19T13:03:45;67742.63;;;3.81;95.31
3844;BME280;1937;51.444;6.484;2023-01-19T13:06:15;67777.50;;;3.76;95.89
3844;BME280;1937;51.444;6.484;2023-01-19T13:09:02;67742.44;;;3.83;95.42
3844;BME280;1937;51.444;6.484;2023-01-19T13:11:31;67726.59;;;3.62;96.27
3844;BME280;1937;51.444;6.484;2023-01-19T13:17:20;67720.16;;;3.57;96.45
3844;BME280;1937;51.444;6.484;2023-01-19T13:19:53;67819.19;;;3.85;96.91
3844;BME280;1937;51.444;6.484;2023-01-19T13:25:46;67836.59;;;4.09;96.79
3844;BME280;1937;51.444;6.484;2023-01-19T13:28:19;67865.00;;;4.11;95.66
3844;BME280;1937;51.444;6.484;2023-01-19T13:30:57;67827.19;;;4.14;96.17
3844;BME280;1937;51.444;6.484;2023-01-19T13:33:30;67719.88;;;3.92;95.42
3844;BME280;1937;51.444;6.484;2023-01-19T13:36:02;67809.75;;;4.17;95.58
3844;BME280;1937;51.444;6.484;2023-01-19T13:38:31;67697.53;;;3.99;95.13
3844;BME280;1937;51.444;6.484;2023-01-19T13:41:02;67730.38;;;4.14;94.77
3844;BME280;1937;51.444;6.484;2023-01-19T13:43:33;67682.03;;;4.01;94.27
3844;BME280;1937;51.444;6.484;2023-01-19T13:46:04;67717.13;;;4.00;95.00
3844;BME280;1937;51.444;6.484;2023-01-19T13:48:33;67719.03;;;4.13;94.30
3844;BME280;1937;51.444;6.484;2023-01-19T13:51:04;67623.13;;;3.92;93.96
3844;BME280;1937;51.444;6.484;2023-01-19T13:53:34;67609.47;;;3.82;94.37
3844;BME280;1937;51.444;6.484;2023-01-19T13:58:44;67657.84;;;3.82;95.04
3844;BME280;1937;51.444;6.484;2023-01-19T14:01:25;67597.31;;;3.83;94.63